sensor_id;sensor_type;location;lat;lon;timestamp;pressure;altitude;pressure_sealevel;temperature;humidity
51067;BME280;37112;45.892;-123.962;2022-12-19T00:00:27;101616.55;;;6.44;76.08
51067;BME280;37112;45.892;-123.962;2022-12-19T00:03:00;101615.16;;;6.43;75.96
51067;BME280;37112;45.892;-123.962;2022-12-19T00:05:14;101618.63;;;6.45;76.12
51067;BME280;37112;45.892;-123.962;2022-12-19T00:07:27;101617.55;;;6.47;75.87
51067;BME280;37112;45.892;-123.962;2022-12-19T00:09:42;101624.89;;;6.48;75.82
51067;BME280;37112;45.892;-123.962;2022-12-19T00:11:55;101626.61;;;6.50;75.12
51067;BME280;37112;45.892;-123.962;2022-12-19T00:14:11;101624.70;;;6.48;74.73
51067;BME280;37112;45.892;-123.962;2022-12-19T00:16:25;101629.43;;;6.50;74.96
51067;BME280;37112;45.892;-123.962;2022-12-19T00:18:40;101630.34;;;6.49;74.88
51067;BME280;37112;45.892;-123.962;2022-12-19T00:21:03;101632.64;;;6.49;74.80
51067;BME280;37112;45.892;-123.962;2022-12-19T00:23:14;101634.29;;;6.47;74.42
51067;BME280;37112;45.892;-123.962;2022-12-19T00:25:27;101632.56;;;6.46;74.59
51067;BME280;37112;45.892;-123.962;2022-12-19T00:27:40;101634.73;;;6.44;75.21
51067;BME280;37112;45.892;-123.962;2022-12-19T00:29:53;101636.05;;;6.41;75.25
51067;BME280;37112;45.892;-123.962;2022-12-19T00:32:07;101637.25;;;6.37;74.91
51067;BME280;37112;45.892;-123.962;2022-12-19T00:34:24;101636.70;;;6.33;74.55
51067;BME280;37112;45.892;-123.962;2022-12-19T00:36:38;101640.66;;;6.31;74.68
51067;BME280;37112;45.892;-123.962;2022-12-19T00:38:53;101643.53;;;6.29;74.50
51067;BME280;37112;45.892;-123.962;2022-12-19T00:41:11;101643.07;;;6.28;74.23
51067;BME280;37112;45.892;-123.962;2022-12-19T00:43:24;101646.05;;;6.28;74.44
51067;BME280;37112;45.892;-123.962;2022-12-19T00:45:39;101641.29;;;6.28;74.48
51067;BME280;37112;45.892;-123.962;2022-12-19T00:47:52;101640.24;;;6.27;74.17
51067;BME280;37112;45.892;-123.962;2022-12-19T00:50:07;101640.79;;;6.27;74.17
51067;BME280;37112;45.892;-123.962;2022-12-19T00:52:21;101643.26;;;6.27;74.00
51067;BME280;37112;45.892;-123.962;2022-12-19T00:54:38;101646.05;;;6.28;73.94
51067;BME280;37112;45.892;-123.962;2022-12-19T00:56:52;101644.43;;;6.29;73.29
51067;BME280;37112;45.892;-123.962;2022-12-19T00:59:05;101648.95;;;6.31;73.55
51067;BME280;37112;45.892;-123.962;2022-12-19T01:01:21;101651.81;;;6.35;73.78
51067;BME280;37112;45.892;-123.962;2022-12-19T01:03:35;101648.74;;;6.36;73.42
51067;BME280;37112;45.892;-123.962;2022-12-19T01:06:07;101663.30;;;6.39;73.61
51067;BME280;37112;45.892;-123.962;2022-12-19T01:08:21;101658.55;;;6.39;75.11
51067;BME280;37112;45.892;-123.962;2022-12-19T01:10:36;101667.41;;;6.28;75.03
51067;BME280;37112;45.892;-123.962;2022-12-19T01:12:49;101669.34;;;6.18;75.84
51067;BME280;37112;45.892;-123.962;2022-12-19T01:15:03;101675.14;;;6.08;75.66
51067;BME280;37112;45.892;-123.962;2022-12-19T01:17:16;101677.98;;;6.02;76.51
51067;BME280;37112;45.892;-123.962;2022-12-19T01:19:30;101684.35;;;5.96;77.34
51067;BME280;37112;45.892;-123.962;2022-12-19T01:21:50;101699.72;;;5.89;77.59
51067;BME280;37112;45.892;-123.962;2022-12-19T01:24:06;101708.30;;;5.79;77.61
51067;BME280;37112;45.892;-123.962;2022-12-19T01:26:20;101702.58;;;5.71;77.74
51067;BME280;37112;45.892;-123.962;2022-12-19T01:28:33;101691.49;;;5.65;77.57
51067;BME280;37112;45.892;-123.962;2022-12-19T01:30:47;101687.88;;;5.56;76.89
51067;BME280;37112;45.892;-123.962;2022-12-19T01:33:00;101689.80;;;5.51;76.79
51067;BME280;37112;45.892;-123.962;2022-12-19T01:35:14;101692.49;;;5.49;77.01
51067;BME280;37112;45.892;-123.962;2022-12-19T01:37:30;101695.95;;;5.51;77.59
51067;BME280;37112;45.892;-123.962;2022-12-19T01:39:44;101700.51;;;5.52;77.69
51067;BME280;37112;45.892;-123.962;2022-12-19T01:41:57;101698.98;;;5.51;78.08
51067;BME280;37112;45.892;-123.962;2022-12-19T01:44:11;101704.17;;;5.48;78.94
51067;BME280;37112;45.892;-123.962;2022-12-19T01:46:27;101698.58;;;5.47;79.10
51067;BME280;37112;45.892;-123.962;2022-12-19T01:48:45;101708.78;;;5.47;79.98
51067;BME280;37112;45.892;-123.962;2022-12-19T01:51:00;101734.63;;;5.49;80.92
51067;BME280;37112;45.892;-123.962;2022-12-19T01:53:15;101747.38;;;5.41;81.50
51067;BME280;37112;45.892;-123.962;2022-12-19T01:55:29;101747.30;;;5.25;81.57
51067;BME280;37112;45.892;-123.962;2022-12-19T01:57:42;101734.70;;;5.10;81.56
51067;BME280;37112;45.892;-123.962;2022-12-19T01:59:57;101732.85;;;4.95;80.90
51067;BME280;37112;45.892;-123.962;2022-12-19T02:02:25;101726.02;;;4.87;81.26
51067;BME280;37112;45.892;-123.962;2022-12-19T02:04:42;101721.39;;;4.83;81.23
51067;BME280;37112;45.892;-123.962;2022-12-19T02:06:56;101720.35;;;4.83;81.19
51067;BME280;37112;45.892;-123.962;2022-12-19T02:09:25;101729.27;;;4.85;81.52
51067;BME280;37112;45.892;-123.962;2022-12-19T02:11:39;101729.71;;;4.87;81.65
51067;BME280;37112;45.892;-123.962;2022-12-19T02:13:56;101734.91;;;4.90;81.77
51067;BME280;37112;45.892;-123.962;2022-12-19T02:16:19;101739.95;;;4.93;82.17
51067;BME280;37112;45.892;-123.962;2022-12-19T02:18:44;101737.28;;;4.93;81.97
51067;BME280;37112;45.892;-123.962;2022-12-19T02:24:20;101724.36;;;4.90;81.36
51067;BME280;37112;45.892;-123.962;2022-12-19T02:26:58;101726.50;;;4.89;81.10
51067;BME280;37112;45.892;-123.962;2022-12-19T02:29:25;101731.09;;;4.88;80.91
51067;BME280;37112;45.892;-123.962;2022-12-19T02:31:49;101735.27;;;4.90;81.02
51067;BME280;37112;45.892;-123.962;2022-12-19T02:34:11;101736.44;;;4.93;80.97
51067;BME280;37112;45.892;-123.962;2022-12-19T02:36:39;101739.66;;;4.96;80.96
51067;BME280;37112;45.892;-123.962;2022-12-19T02:39:00;101739.10;;;4.98;80.90
51067;BME280;37112;45.892;-123.962;2022-12-19T02:41:20;101740.65;;;4.99;80.80
51067;BME280;37112;45.892;-123.962;2022-12-19T02:43:37;101742.90;;;5.01;80.88
51067;BME280;37112;45.892;-123.962;2022-12-19T02:45:53;101744.98;;;5.02;81.08
51067;BME280;37112;45.892;-123.962;2022-12-19T02:48:08;101748.30;;;5.02;81.10
51067;BME280;37112;45.892;-123.962;2022-12-19T02:50:33;101746.52;;;5.03;81.36
51067;BME280;37112;45.892;-123.962;2022-12-19T02:52:49;101751.38;;;4.99;81.47
51067;BME280;37112;45.892;-123.962;2022-12-19T02:55:07;101756.91;;;4.96;81.67
51067;BME280;37112;45.892;-123.962;2022-12-19T02:57:30;101760.42;;;4.96;82.36
51067;BME280;37112;45.892;-123.962;2022-12-19T02:59:56;101774.20;;;4.95;82.94
51067;BME280;37112;45.892;-123.962;2022-12-19T03:02:21;101775.77;;;4.90;82.55
51067;BME280;37112;45.892;-123.962;2022-12-19T03:04:45;101770.55;;;4.87;83.22
51067;BME280;37112;45.892;-123.962;2022-12-19T03:07:00;101766.33;;;4.87;83.24
51067;BME280;37112;45.892;-123.962;2022-12-19T03:09:19;101767.61;;;4.86;83.76
51067;BME280;37112;45.892;-123.962;2022-12-19T03:11:37;101770.98;;;4.84;83.54
51067;BME280;37112;45.892;-123.962;2022-12-19T03:13:55;101771.55;;;4.83;83.56
51067;BME280;37112;45.892;-123.962;2022-12-19T03:16:11;101772.97;;;4.82;83.83
51067;BME280;37112;45.892;-123.962;2022-12-19T03:18:26;101772.96;;;4.83;83.64
51067;BME280;37112;45.892;-123.962;2022-12-19T03:20:45;101775.03;;;4.84;83.84
51067;BME280;37112;45.892;-123.962;2022-12-19T03:23:00;101783.04;;;4.87;83.88
51067;BME280;37112;45.892;-123.962;2022-12-19T03:25:16;101789.19;;;4.87;83.75
51067;BME280;37112;45.892;-123.962;2022-12-19T03:27:32;101796.77;;;4.87;83.88
51067;BME280;37112;45.892;-123.962;2022-12-19T03:29:51;101801.52;;;4.87;84.64
51067;BME280;37112;45.892;-123.962;2022-12-19T03:32:07;101802.67;;;4.84;84.78
51067;BME280;37112;45.892;-123.962;2022-12-19T03:34:24;101798.58;;;4.79;85.15
51067;BME280;37112;45.892;-123.962;2022-12-19T03:36:44;101799.08;;;4.72;84.45
51067;BME280;37112;45.892;-123.962;2022-12-19T03:39:01;101808.58;;;4.66;84.40
51067;BME280;37112;45.892;-123.962;2022-12-19T03:41:18;101810.05;;;4.63;84.35
51067;BME280;37112;45.892;-123.962;2022-12-19T03:43:53;101808.13;;;4.63;84.57
51067;BME280;37112;45.892;-123.962;2022-12-19T03:46:10;101809.29;;;4.65;84.69
51067;BME280;37112;45.892;-123.962;2022-12-19T03:48:28;101810.89;;;4.65;84.09
51067;BME280;37112;45.892;-123.962;2022-12-19T03:50:47;101813.59;;;4.63;83.86
51067;BME280;37112;45.892;-123.962;2022-12-19T03:53:10;101814.14;;;4.62;83.56
51067;BME280;37112;45.892;-123.962;2022-12-19T03:55:30;101814.90;;;4.60;83.09
51067;BME280;37112;45.892;-123.962;2022-12-19T03:57:49;101813.84;;;4.60;83.17
51067;BME280;37112;45.892;-123.962;2022-12-19T04:00:06;101816.47;;;4.60;83.15
51067;BME280;37112;45.892;-123.962;2022-12-19T04:02:22;101818.38;;;4.62;82.95
51067;BME280;37112;45.892;-123.962;2022-12-19T04:04:37;101819.36;;;4.64;82.95
51067;BME280;37112;45.892;-123.962;2022-12-19T04:06:52;101826.35;;;4.65;82.71
51067;BME280;37112;45.892;-123.962;2022-12-19T04:09:06;101834.44;;;4.66;82.52
51067;BME280;37112;45.892;-123.962;2022-12-19T04:11:21;101833.36;;;4.66;82.46
51067;BME280;37112;45.892;-123.962;2022-12-19T04:13:38;101839.85;;;4.68;82.31
51067;BME280;37112;45.892;-123.962;2022-12-19T04:15:57;101840.69;;;4.69;82.26
51067;BME280;37112;45.892;-123.962;2022-12-19T04:18:13;101841.34;;;4.71;82.18
51067;BME280;37112;45.892;-123.962;2022-12-19T04:20:29;101841.84;;;4.72;82.11
51067;BME280;37112;45.892;-123.962;2022-12-19T04:22:42;101843.39;;;4.73;82.05
51067;BME280;37112;45.892;-123.962;2022-12-19T04:25:00;101838.15;;;4.72;81.85
51067;BME280;37112;45.892;-123.962;2022-12-19T04:27:15;101839.45;;;4.70;81.94
51067;BME280;37112;45.892;-123.962;2022-12-19T04:29:30;101847.06;;;4.68;81.78
51067;BME280;37112;45.892;-123.962;2022-12-19T04:31:45;101851.48;;;4.67;81.78
51067;BME280;37112;45.892;-123.962;2022-12-19T04:33:59;101853.95;;;4.66;81.76
51067;BME280;37112;45.892;-123.962;2022-12-19T04:36:13;101860.17;;;4.64;81.57
51067;BME280;37112;45.892;-123.962;2022-12-19T04:38:27;101864.34;;;4.60;81.55
51067;BME280;37112;45.892;-123.962;2022-12-19T04:40:40;101865.83;;;4.56;81.41
51067;BME280;37112;45.892;-123.962;2022-12-19T04:42:53;101869.27;;;4.52;81.48
51067;BME280;37112;45.892;-123.962;2022-12-19T04:45:08;101874.57;;;4.51;81.68
51067;BME280;37112;45.892;-123.962;2022-12-19T04:47:21;101879.02;;;4.49;81.72
51067;BME280;37112;45.892;-123.962;2022-12-19T04:49:35;101882.33;;;4.50;82.15
51067;BME280;37112;45.892;-123.962;2022-12-19T04:51:48;101883.34;;;4.51;82.33
51067;BME280;37112;45.892;-123.962;2022-12-19T04:54:02;101891.27;;;4.52;82.28
51067;BME280;37112;45.892;-123.962;2022-12-19T04:56:16;101896.89;;;4.51;82.25
51067;BME280;37112;45.892;-123.962;2022-12-19T04:58:30;101895.30;;;4.51;82.42
51067;BME280;37112;45.892;-123.962;2022-12-19T05:00:43;101900.13;;;4.48;82.37
51067;BME280;37112;45.892;-123.962;2022-12-19T05:02:57;101909.40;;;4.42;82.29
51067;BME280;37112;45.892;-123.962;2022-12-19T05:05:11;101916.58;;;4.37;82.21
51067;BME280;37112;45.892;-123.962;2022-12-19T05:07:25;101920.02;;;4.32;82.26
51067;BME280;37112;45.892;-123.962;2022-12-19T05:09:38;101922.90;;;4.30;82.56
51067;BME280;37112;45.892;-123.962;2022-12-19T05:11:51;101926.73;;;4.31;82.82
51067;BME280;37112;45.892;-123.962;2022-12-19T05:14:05;101931.11;;;4.32;82.70
51067;BME280;37112;45.892;-123.962;2022-12-19T05:16:18;101930.86;;;4.27;82.54
51067;BME280;37112;45.892;-123.962;2022-12-19T05:18:32;101929.34;;;4.24;82.56
51067;BME280;37112;45.892;-123.962;2022-12-19T05:20:49;101927.94;;;4.24;82.69
51067;BME280;37112;45.892;-123.962;2022-12-19T05:23:02;101932.36;;;4.23;82.83
51067;BME280;37112;45.892;-123.962;2022-12-19T05:25:25;101934.98;;;4.24;82.94
51067;BME280;37112;45.892;-123.962;2022-12-19T05:27:39;101938.14;;;4.24;83.00
51067;BME280;37112;45.892;-123.962;2022-12-19T05:29:52;101941.71;;;4.22;82.75
51067;BME280;37112;45.892;-123.962;2022-12-19T05:32:05;101948.79;;;4.18;82.64
51067;BME280;37112;45.892;-123.962;2022-12-19T05:34:18;101951.05;;;4.19;82.82
51067;BME280;37112;45.892;-123.962;2022-12-19T05:36:32;101956.48;;;4.20;83.00
51067;BME280;37112;45.892;-123.962;2022-12-19T05:38:45;101961.06;;;4.21;82.99
51067;BME280;37112;45.892;-123.962;2022-12-19T05:40:59;101962.30;;;4.20;83.17
51067;BME280;37112;45.892;-123.962;2022-12-19T05:43:12;101965.13;;;4.19;83.20
51067;BME280;37112;45.892;-123.962;2022-12-19T05:45:25;101958.29;;;4.18;83.09
51067;BME280;37112;45.892;-123.962;2022-12-19T05:47:39;101950.29;;;4.15;83.05
51067;BME280;37112;45.892;-123.962;2022-12-19T05:49:53;101950.33;;;4.13;82.80
51067;BME280;37112;45.892;-123.962;2022-12-19T05:52:06;101946.66;;;4.10;82.77
51067;BME280;37112;45.892;-123.962;2022-12-19T05:54:22;101947.83;;;4.07;82.53
51067;BME280;37112;45.892;-123.962;2022-12-19T05:56:35;101951.61;;;4.02;82.51
51067;BME280;37112;45.892;-123.962;2022-12-19T05:58:49;101952.20;;;3.99;82.69
51067;BME280;37112;45.892;-123.962;2022-12-19T06:01:07;101956.47;;;3.97;82.79
51067;BME280;37112;45.892;-123.962;2022-12-19T06:03:21;101970.18;;;3.96;82.91
51067;BME280;37112;45.892;-123.962;2022-12-19T06:05:38;101975.83;;;3.95;82.84
51067;BME280;37112;45.892;-123.962;2022-12-19T06:07:52;101976.20;;;3.94;82.84
51067;BME280;37112;45.892;-123.962;2022-12-19T06:10:07;101974.33;;;3.91;82.72
51067;BME280;37112;45.892;-123.962;2022-12-19T06:12:20;101971.21;;;3.88;82.64
51067;BME280;37112;45.892;-123.962;2022-12-19T06:14:33;101975.50;;;3.85;82.69
51067;BME280;37112;45.892;-123.962;2022-12-19T06:16:47;101977.42;;;3.85;82.99
51067;BME280;37112;45.892;-123.962;2022-12-19T06:19:00;101982.67;;;3.86;83.11
51067;BME280;37112;45.892;-123.962;2022-12-19T06:21:15;101986.20;;;3.86;83.03
51067;BME280;37112;45.892;-123.962;2022-12-19T06:23:30;101987.98;;;3.85;83.18
51067;BME280;37112;45.892;-123.962;2022-12-19T06:25:44;101989.55;;;3.85;83.39
51067;BME280;37112;45.892;-123.962;2022-12-19T06:27:57;101992.39;;;3.84;83.37
51067;BME280;37112;45.892;-123.962;2022-12-19T06:30:12;102002.92;;;3.84;83.46
51067;BME280;37112;45.892;-123.962;2022-12-19T06:32:27;102011.31;;;3.86;83.56
51067;BME280;37112;45.892;-123.962;2022-12-19T06:34:46;102018.16;;;3.86;83.48
51067;BME280;37112;45.892;-123.962;2022-12-19T06:37:15;102023.43;;;3.86;83.50
51067;BME280;37112;45.892;-123.962;2022-12-19T06:39:29;102025.42;;;3.84;83.46
51067;BME280;37112;45.892;-123.962;2022-12-19T06:41:42;102038.29;;;3.82;83.47
51067;BME280;37112;45.892;-123.962;2022-12-19T06:44:13;102045.14;;;3.83;83.65
51067;BME280;37112;45.892;-123.962;2022-12-19T06:46:27;102049.48;;;3.84;83.74
51067;BME280;37112;45.892;-123.962;2022-12-19T06:48:40;102041.93;;;3.84;83.62
51067;BME280;37112;45.892;-123.962;2022-12-19T06:50:54;102039.17;;;3.82;83.28
51067;BME280;37112;45.892;-123.962;2022-12-19T06:53:07;102035.52;;;3.79;83.46
51067;BME280;37112;45.892;-123.962;2022-12-19T06:55:21;102040.63;;;3.79;83.62
51067;BME280;37112;45.892;-123.962;2022-12-19T06:57:34;102047.16;;;3.77;83.51
51067;BME280;37112;45.892;-123.962;2022-12-19T06:59:55;102054.21;;;3.76;83.58
51067;BME280;37112;45.892;-123.962;2022-12-19T07:02:19;102049.99;;;3.76;83.64
51067;BME280;37112;45.892;-123.962;2022-12-19T07:04:37;102045.79;;;3.75;83.63
51067;BME280;37112;45.892;-123.962;2022-12-19T07:06:52;102051.27;;;3.73;83.60
51067;BME280;37112;45.892;-123.962;2022-12-19T07:09:05;102050.91;;;3.73;83.68
51067;BME280;37112;45.892;-123.962;2022-12-19T07:11:20;102044.79;;;3.72;83.63
51067;BME280;37112;45.892;-123.962;2022-12-19T07:13:33;102046.39;;;3.71;83.65
51067;BME280;37112;45.892;-123.962;2022-12-19T07:15:46;102043.41;;;3.70;83.72
51067;BME280;37112;45.892;-123.962;2022-12-19T07:18:01;102040.44;;;3.70;83.71
51067;BME280;37112;45.892;-123.962;2022-12-19T07:20:17;102040.09;;;3.69;83.68
51067;BME280;37112;45.892;-123.962;2022-12-19T07:22:32;102052.08;;;3.68;83.75
51067;BME280;37112;45.892;-123.962;2022-12-19T07:24:47;102053.50;;;3.66;83.62
51067;BME280;37112;45.892;-123.962;2022-12-19T07:27:00;102053.86;;;3.65;83.72
51067;BME280;37112;45.892;-123.962;2022-12-19T07:29:14;102061.92;;;3.66;83.99
51067;BME280;37112;45.892;-123.962;2022-12-19T07:31:28;102067.21;;;3.67;83.96
51067;BME280;37112;45.892;-123.962;2022-12-19T07:33:42;102068.09;;;3.65;83.88
51067;BME280;37112;45.892;-123.962;2022-12-19T07:35:55;102072.30;;;3.65;84.03
51067;BME280;37112;45.892;-123.962;2022-12-19T07:38:09;102070.73;;;3.64;84.11
51067;BME280;37112;45.892;-123.962;2022-12-19T07:40:23;102065.87;;;3.62;84.15
51067;BME280;37112;45.892;-123.962;2022-12-19T07:42:36;102064.30;;;3.61;84.19
51067;BME280;37112;45.892;-123.962;2022-12-19T07:44:49;102063.98;;;3.60;84.25
51067;BME280;37112;45.892;-123.962;2022-12-19T07:47:03;102063.14;;;3.57;84.30
51067;BME280;37112;45.892;-123.962;2022-12-19T07:49:17;102065.95;;;3.56;84.31
51067;BME280;37112;45.892;-123.962;2022-12-19T07:51:33;102070.55;;;3.55;84.28
51067;BME280;37112;45.892;-123.962;2022-12-19T07:53:47;102069.86;;;3.54;84.28
51067;BME280;37112;45.892;-123.962;2022-12-19T07:56:00;102070.59;;;3.53;84.39
51067;BME280;37112;45.892;-123.962;2022-12-19T07:58:13;102076.42;;;3.51;84.36
51067;BME280;37112;45.892;-123.962;2022-12-19T08:00:27;102073.27;;;3.49;84.38
51067;BME280;37112;45.892;-123.962;2022-12-19T08:02:40;102067.49;;;3.48;84.42
51067;BME280;37112;45.892;-123.962;2022-12-19T08:04:54;102066.80;;;3.48;84.57
51067;BME280;37112;45.892;-123.962;2022-12-19T08:07:09;102072.97;;;3.47;84.64
51067;BME280;37112;45.892;-123.962;2022-12-19T08:09:22;102078.44;;;3.46;84.45
51067;BME280;37112;45.892;-123.962;2022-12-19T08:11:37;102080.23;;;3.43;84.42
51067;BME280;37112;45.892;-123.962;2022-12-19T08:13:50;102091.13;;;3.43;84.68
51067;BME280;37112;45.892;-123.962;2022-12-19T08:16:04;102096.89;;;3.45;84.71
51067;BME280;37112;45.892;-123.962;2022-12-19T08:18:18;102096.91;;;3.44;84.61
51067;BME280;37112;45.892;-123.962;2022-12-19T08:20:31;102101.14;;;3.42;84.67
51067;BME280;37112;45.892;-123.962;2022-12-19T08:22:44;102104.30;;;3.41;84.79
51067;BME280;37112;45.892;-123.962;2022-12-19T08:24:58;102101.33;;;3.40;84.77
51067;BME280;37112;45.892;-123.962;2022-12-19T08:27:11;102104.00;;;3.39;84.74
51067;BME280;37112;45.892;-123.962;2022-12-19T08:29:25;102104.39;;;3.37;84.71
51067;BME280;37112;45.892;-123.962;2022-12-19T08:31:38;102104.06;;;3.34;84.81
51067;BME280;37112;45.892;-123.962;2022-12-19T08:33:52;102103.23;;;3.32;84.84
51067;BME280;37112;45.892;-123.962;2022-12-19T08:36:07;102103.39;;;3.32;85.06
51067;BME280;37112;45.892;-123.962;2022-12-19T08:38:21;102105.13;;;3.33;85.15
51067;BME280;37112;45.892;-123.962;2022-12-19T08:40:35;102103.71;;;3.35;85.27
51067;BME280;37112;45.892;-123.962;2022-12-19T08:42:56;102106.29;;;3.39;85.51
51067;BME280;37112;45.892;-123.962;2022-12-19T08:45:10;102104.30;;;3.41;85.62
51067;BME280;37112;45.892;-123.962;2022-12-19T08:47:23;102105.17;;;3.42;85.65
51067;BME280;37112;45.892;-123.962;2022-12-19T08:49:37;102110.96;;;3.43;85.68
51067;BME280;37112;45.892;-123.962;2022-12-19T08:51:50;102112.20;;;3.43;85.55
51067;BME280;37112;45.892;-123.962;2022-12-19T08:54:03;102113.79;;;3.42;85.68
51067;BME280;37112;45.892;-123.962;2022-12-19T08:56:21;102116.59;;;3.41;85.71
51067;BME280;37112;45.892;-123.962;2022-12-19T08:58:35;102114.15;;;3.41;85.75
51067;BME280;37112;45.892;-123.962;2022-12-19T09:00:48;102111.71;;;3.39;85.58
51067;BME280;37112;45.892;-123.962;2022-12-19T09:03:10;102110.89;;;3.37;85.62
51067;BME280;37112;45.892;-123.962;2022-12-19T09:05:27;102106.16;;;3.36;85.73
51067;BME280;37112;45.892;-123.962;2022-12-19T09:08:00;102107.92;;;3.35;85.88
51067;BME280;37112;45.892;-123.962;2022-12-19T09:10:14;102108.44;;;3.37;85.90
51067;BME280;37112;45.892;-123.962;2022-12-19T09:12:28;102104.76;;;3.36;85.96
51067;BME280;37112;45.892;-123.962;2022-12-19T09:14:41;102104.24;;;3.35;85.96
51067;BME280;37112;45.892;-123.962;2022-12-19T09:16:56;102107.41;;;3.33;85.98
51067;BME280;37112;45.892;-123.962;2022-12-19T09:19:12;102112.35;;;3.32;86.08
51067;BME280;37112;45.892;-123.962;2022-12-19T09:21:29;102120.44;;;3.32;86.14
51067;BME280;37112;45.892;-123.962;2022-12-19T09:23:46;102122.89;;;3.31;86.13
51067;BME280;37112;45.892;-123.962;2022-12-19T09:26:03;102125.54;;;3.31;86.06
51067;BME280;37112;45.892;-123.962;2022-12-19T09:28:17;102124.13;;;3.31;86.07
51067;BME280;37112;45.892;-123.962;2022-12-19T09:30:38;102118.88;;;3.31;86.14
51067;BME280;37112;45.892;-123.962;2022-12-19T09:32:51;102115.89;;;3.30;86.08
51067;BME280;37112;45.892;-123.962;2022-12-19T09:35:05;102112.55;;;3.31;86.21
51067;BME280;37112;45.892;-123.962;2022-12-19T09:37:18;102113.61;;;3.30;86.29
51067;BME280;37112;45.892;-123.962;2022-12-19T09:39:31;102113.27;;;3.30;86.34
51067;BME280;37112;45.892;-123.962;2022-12-19T09:42:04;102111.87;;;3.30;86.24
51067;BME280;37112;45.892;-123.962;2022-12-19T09:44:36;102115.20;;;3.30;86.42
51067;BME280;37112;45.892;-123.962;2022-12-19T09:46:54;102115.00;;;3.31;86.54
51067;BME280;37112;45.892;-123.962;2022-12-19T09:49:13;102117.10;;;3.31;86.58
51067;BME280;37112;45.892;-123.962;2022-12-19T09:51:34;102122.00;;;3.32;86.65
51067;BME280;37112;45.892;-123.962;2022-12-19T09:53:58;102119.35;;;3.33;86.75
51067;BME280;37112;45.892;-123.962;2022-12-19T09:56:16;102123.73;;;3.34;86.80
51067;BME280;37112;45.892;-123.962;2022-12-19T09:58:39;102121.64;;;3.33;86.58
51067;BME280;37112;45.892;-123.962;2022-12-19T10:00:58;102119.73;;;3.31;86.62
51067;BME280;37112;45.892;-123.962;2022-12-19T10:03:19;102119.57;;;3.31;86.71
51067;BME280;37112;45.892;-123.962;2022-12-19T10:05:35;102126.95;;;3.31;86.82
51067;BME280;37112;45.892;-123.962;2022-12-19T10:08:17;102132.71;;;3.32;87.09
51067;BME280;37112;45.892;-123.962;2022-12-19T10:10:38;102133.05;;;3.33;87.05
51067;BME280;37112;45.892;-123.962;2022-12-19T10:13:21;102132.85;;;3.34;87.05
51067;BME280;37112;45.892;-123.962;2022-12-19T10:15:50;102141.99;;;3.33;87.03
51067;BME280;37112;45.892;-123.962;2022-12-19T10:18:25;102149.20;;;3.33;86.87
51067;BME280;37112;45.892;-123.962;2022-12-19T10:20:48;102155.00;;;3.33;86.95
51067;BME280;37112;45.892;-123.962;2022-12-19T10:23:19;102164.29;;;3.33;87.15
51067;BME280;37112;45.892;-123.962;2022-12-19T10:25:38;102169.38;;;3.33;87.12
51067;BME280;37112;45.892;-123.962;2022-12-19T10:27:59;102175.18;;;3.33;87.21
51067;BME280;37112;45.892;-123.962;2022-12-19T10:30:19;102175.52;;;3.34;87.25
51067;BME280;37112;45.892;-123.962;2022-12-19T10:32:39;102175.34;;;3.35;87.27
51067;BME280;37112;45.892;-123.962;2022-12-19T10:34:54;102169.02;;;3.34;87.09
51067;BME280;37112;45.892;-123.962;2022-12-19T10:37:13;102172.04;;;3.33;86.94
51067;BME280;37112;45.892;-123.962;2022-12-19T10:39:52;102184.17;;;3.31;86.96
51067;BME280;37112;45.892;-123.962;2022-12-19T10:42:14;102186.13;;;3.30;86.90
51067;BME280;37112;45.892;-123.962;2022-12-19T10:44:30;102191.05;;;3.29;86.86
51067;BME280;37112;45.892;-123.962;2022-12-19T10:46:48;102189.65;;;3.29;86.97
51067;BME280;37112;45.892;-123.962;2022-12-19T10:49:08;102186.47;;;3.30;87.05
51067;BME280;37112;45.892;-123.962;2022-12-19T10:51:25;102179.27;;;3.31;87.01
51067;BME280;37112;45.892;-123.962;2022-12-19T10:53:39;102180.86;;;3.30;87.02
51067;BME280;37112;45.892;-123.962;2022-12-19T10:55:54;102185.95;;;3.30;87.13
51067;BME280;37112;45.892;-123.962;2022-12-19T10:58:31;102181.39;;;3.29;87.07
51067;BME280;37112;45.892;-123.962;2022-12-19T11:00:48;102191.95;;;3.28;87.03
51067;BME280;37112;45.892;-123.962;2022-12-19T11:03:14;102195.83;;;3.26;87.01
51067;BME280;37112;45.892;-123.962;2022-12-19T11:05:30;102199.02;;;3.23;87.02
51067;BME280;37112;45.892;-123.962;2022-12-19T11:07:53;102199.20;;;3.23;87.27
51067;BME280;37112;45.892;-123.962;2022-12-19T11:10:34;102194.45;;;3.24;87.39
51067;BME280;37112;45.892;-123.962;2022-12-19T11:13:23;102199.38;;;3.23;87.43
51067;BME280;37112;45.892;-123.962;2022-12-19T11:15:58;102194.77;;;3.26;87.68
51067;BME280;37112;45.892;-123.962;2022-12-19T11:18:41;102196.54;;;3.27;87.63
51067;BME280;37112;45.892;-123.962;2022-12-19T11:21:19;102207.41;;;3.27;87.54
51067;BME280;37112;45.892;-123.962;2022-12-19T11:24:03;102215.30;;;3.28;87.67
51067;BME280;37112;45.892;-123.962;2022-12-19T11:26:43;102205.47;;;3.28;87.60
51067;BME280;37112;45.892;-123.962;2022-12-19T11:29:22;102205.29;;;3.28;87.57
51067;BME280;37112;45.892;-123.962;2022-12-19T11:32:00;102204.23;;;3.29;87.58
51067;BME280;37112;45.892;-123.962;2022-12-19T11:34:35;102201.58;;;3.30;87.77
51067;BME280;37112;45.892;-123.962;2022-12-19T11:36:51;102200.34;;;3.30;87.62
51067;BME280;37112;45.892;-123.962;2022-12-19T11:39:07;102200.52;;;3.30;87.45
51067;BME280;37112;45.892;-123.962;2022-12-19T11:41:31;102200.88;;;3.29;87.44
51067;BME280;37112;45.892;-123.962;2022-12-19T11:43:54;102211.77;;;3.29;87.47